Rechercher aéroport 
image banner adimage banner adimage banner ad
image banner ad

40PA - Cinram Group Inc

Situé à Olyphant, United States

ICAO - 40PA, IATA -

Données fournies par Airmate  

Information générale

Coordonnées: N41°27'35" W75°34'59"
Élévation : 908 feet MSL.
Variation magnétique : -12° East
Voir autres Aéroports à Pennsylvania

Données opérationnelles

Special qualification required
Heure actuelle UTC:
Heure actuelle locale:
Météo à : KAVP - Wilkes-Barre/Scranton Intl ( 18 km )
METAR: KAVP 152054Z 31012G17KT 10SM SCT033 OVC070 22/13 A2982 RMK AO2 SLP092 60000 T02170133 53000
TAF: KAVP 151744Z 1518/1618 31010G18KT P6SM -SHRA SCT028 BKN040 TEMPO 1518/1520 3SM -RA SCT025 BKN030 FM152200 33009KT P6SM SCT040 BKN070 FM160100 33006KT P6SM SCT250 FM161600 33012KT P6SM FEW250
Voir NOTAMs / SUP AIP / TFR affectant cet aéroport [VIEW]
Fréquences de communication: [VIEW]

Pistes:

Coordonnées de l'aéroport

Adresse: Olyphant United States

Vue satellite de 40PA